Paraiba do Sul, Brazil
Current Conditions -  °F | °C
As of 1:00 PM on Thursday 23 Oct 2014 (Local Time) from SBGL Reporting Station
Few Clouds Few Clouds  
Wind Chill: 81°   Ceiling: Unl
Heat Index: 81°   Visibility: 6mi
Dew Point: 57°   Wind: 7mph
Humidity: 45%   Direction: 110°ESE
Pressure: 30.09"   Gusts: NA
Location:  22.16°S, 43.29°W
Report Text: SBGL 231500Z 11006KT 9999 FEW030 27/14 Q1019
Loading
Personal Weather Stations






























Interactive Weather Map
Tropical Storm Tracking
New forecast layout! Learn more

10-Day Weather Forecast

Advertisements
Track Severe Weather on mobile